Time;durP1;ratioP1;P1;durP2;ratioP2;P2;SDS_P1;SDS_P2;PMS_P1;PMS_P2;Temp;Humidity;BMP_temperature;BMP_pressure;BME280_temperature;BME280_humidity;BME280_pressure;Samples;Min_cycle;Max_cycle;Signal;HPM_P1;HPM_P2
2022/05/25 00:00:51;;;;;;;4.20;2.65;;;;;;;23.22;42.92;100488.16;2335639;76;50349;-78
2022/05/25 00:03:54;;;;;;;6.35;2.92;;;;;;;23.21;42.92;100490.53;2323162;75;51175;-79
2022/05/25 00:06:56;;;;;;;5.42;3.05;;;;;;;23.21;42.95;100498.63;2322272;75;50328;-79
2022/05/25 00:09:58;;;;;;;5.15;2.70;;;;;;;23.20;42.88;100492.94;2375290;74;50338;-79
2022/05/25 00:13:01;;;;;;;5.15;2.50;;;;;;;23.19;42.98;100500.72;2321890;75;50704;-79
2022/05/25 00:16:04;;;;;;;6.87;3.15;;;;;;;23.19;42.92;100503.41;2375740;74;51358;-79
2022/05/25 00:22:42;;;;;;;5.00;2.83;;;;;;;23.19;42.90;100513.39;2325978;75;22349;-78
2022/05/25 00:25:44;;;;;;;5.28;2.70;;;;;;;23.17;42.90;100512.27;2351725;75;51414;-79
2022/05/25 00:28:46;;;;;;;7.30;2.72;;;;;;;23.17;42.84;100522.22;2358273;75;49948;-79
2022/05/25 00:31:48;;;;;;;5.22;2.40;;;;;;;23.16;42.78;100520.05;2309889;75;50348;-79
2022/05/25 00:34:50;;;;;;;2.70;2.33;;;;;;;23.15;42.79;100519.75;2335553;75;49439;-78
2022/05/25 00:37:53;;;;;;;3.17;2.60;;;;;;;23.17;42.70;100525.77;2308712;75;50086;-78
2022/05/25 00:40:55;;;;;;;4.40;2.80;;;;;;;23.16;42.65;100530.84;2367650;75;51479;-78
2022/05/25 00:43:58;;;;;;;4.80;2.98;;;;;;;23.14;42.71;100528.87;2284098;75;49247;-78
2022/05/25 00:47:00;;;;;;;6.45;2.80;;;;;;;23.14;42.71;100527.53;2309359;75;51540;-78
2022/05/25 00:50:03;;;;;;;4.70;2.90;;;;;;;23.13;42.79;100517.78;2363377;74;50756;-78
2022/05/25 00:53:05;;;;;;;6.67;3.00;;;;;;;23.12;42.82;100517.99;2357361;75;50379;-79
2022/05/25 00:56:08;;;;;;;4.03;2.80;;;;;;;23.14;42.77;100515.37;2370779;75;50256;-78
2022/05/25 00:59:18;;;;;;;4.85;2.80;;;;;;;23.12;42.81;100514.80;2370558;74;51543;-78
2022/05/25 01:02:20;;;;;;;5.55;2.40;;;;;;;23.11;42.82;100511.77;2335127;75;52531;-78
2022/05/25 01:05:31;;;;;;;3.58;2.47;;;;;;;23.11;42.75;100508.25;2361231;75;50331;-78
2022/05/25 01:08:57;;;;;;;4.60;2.60;;;;;;;23.11;42.74;100513.12;2354833;74;49921;-78
2022/05/25 01:12:03;;;;;;;4.42;2.27;;;;;;;23.11;42.72;100509.08;2329938;75;51803;-78
2022/05/25 01:15:24;;;;;;;;;;;;;;;23.11;42.69;100506.38;2357891;75;50214;-78
2022/05/25 01:18:48;;;;;;;3.10;2.12;;;;;;;23.10;42.68;100508.78;2354947;74;52342;-78
2022/05/25 01:21:59;;;;;;;3.70;2.30;;;;;;;23.08;42.68;100514.91;2301992;76;51085;-78
2022/05/25 01:25:20;;;;;;;5.08;2.55;;;;;;;23.08;42.62;100512.21;2315514;76;52769;-78
2022/05/25 01:28:34;;;;;;;6.08;2.00;;;;;;;23.08;42.59;100510.04;2315298;75;51515;-78
2022/05/25 01:32:04;;;;;;;4.30;2.25;;;;;;;23.10;42.47;100523.62;2315619;76;51468;-78
2022/05/25 01:35:12;;;;;;;3.20;2.27;;;;;;;23.08;42.50;100516.26;2315689;76;50369;-78
2022/05/25 01:38:26;;;;;;;4.03;2.00;;;;;;;23.06;42.71;100514.30;2291112;76;51025;-78
2022/05/25 01:41:37;;;;;;;3.58;2.10;;;;;;;23.06;42.55;100511.59;2315643;76;51542;-79
2022/05/25 01:44:44;;;;;;;3.55;2.02;;;;;;;23.05;42.63;100520.75;2315489;76;51460;-78
2022/05/25 01:47:48;;;;;;;3.80;1.98;;;;;;;23.04;42.55;100512.33;2291835;76;50063;-78
2022/05/25 01:50:56;;;;;;;3.27;2.30;;;;;;;23.04;42.55;100510.97;2333217;76;51505;-78
2022/05/25 01:54:00;;;;;;;6.15;2.12;;;;;;;23.03;42.52;100520.12;2340884;75;51537;-78
2022/05/25 01:57:08;;;;;;;2.67;2.20;;;;;;;23.03;42.53;100521.48;2340903;76;51527;-78
2022/05/25 02:00:10;;;;;;;4.55;2.15;;;;;;;23.01;42.63;100527.08;2348457;74;51560;-77
2022/05/25 02:06:54;;;;;;;3.45;2.20;;;;;;;23.03;42.57;100544.41;2312891;76;22425;-78
2022/05/25 02:10:24;;;;;;;3.65;2.30;;;;;;;23.04;42.57;100542.01;2341765;74;50293;-78
2022/05/25 02:14:01;;;;;;;2.77;2.10;;;;;;;23.03;42.51;100545.77;2341792;76;51370;-77
2022/05/25 02:17:13;;;;;;;3.62;2.05;;;;;;;23.02;42.46;100547.64;2342012;76;51486;-78
2022/05/25 02:20:27;;;;;;;3.70;1.98;;;;;;;23.01;42.52;100549.19;2334816;75;51489;-77
2022/05/25 02:23:36;;;;;;;5.60;2.25;;;;;;;22.99;42.53;100546.73;2297035;76;50711;-76
2022/05/25 02:26:44;;;;;;;4.58;2.15;;;;;;;22.99;42.53;100544.52;2294879;77;51467;-76
2022/05/25 02:29:49;;;;;;;3.85;2.30;;;;;;;23.00;42.51;100548.90;2261786;77;50801;-76
2022/05/25 02:33:14;;;;;;;5.75;2.37;;;;;;;22.99;42.50;100549.92;2294138;76;51518;-77
2022/05/25 02:36:17;;;;;;;4.30;2.33;;;;;;;22.98;42.51;100559.08;2294774;77;51513;-77
2022/05/25 02:39:19;;;;;;;3.92;2.37;;;;;;;23.00;42.44;100558.34;2294470;77;50295;-77
2022/05/25 02:42:21;;;;;;;4.80;2.42;;;;;;;22.98;42.54;100557.20;2261556;77;50331;-77
2022/05/25 02:45:24;;;;;;;4.03;2.12;;;;;;;22.99;42.44;100575.56;2261720;77;50404;-77
2022/05/25 02:48:26;;;;;;;7.37;2.30;;;;;;;22.97;42.53;100571.74;2261375;76;50326;-78
2022/05/25 02:51:28;;;;;;;4.60;2.10;;;;;;;22.98;42.55;100566.64;2301274;76;50668;-77
2022/05/25 02:54:30;;;;;;;3.75;2.52;;;;;;;22.98;42.42;100564.47;2311655;76;50911;-77
2022/05/25 02:57:33;;;;;;;3.58;2.47;;;;;;;22.98;42.47;100566.64;2333640;75;50605;-78
2022/05/25 03:00:36;;;;;;;4.22;2.30;;;;;;;22.98;42.45;100564.47;2316832;76;51556;-77
2022/05/25 03:03:38;;;;;;;5.95;2.17;;;;;;;22.98;42.46;100564.47;2268026;77;52616;-77
2022/05/25 03:06:40;;;;;;;4.58;1.87;;;;;;;22.96;42.47;100561.12;2309058;76;51397;-78
2022/05/25 03:09:42;;;;;;;3.67;2.40;;;;;;;22.95;42.55;100563.52;2256024;76;51434;-76
2022/05/25 03:12:45;;;;;;;3.60;2.20;;;;;;;22.96;42.51;100563.81;2265681;76;49651;-76
2022/05/25 03:15:47;;;;;;;4.37;2.00;;;;;;;22.96;42.50;100575.95;2256870;76;49539;-77
2022/05/25 03:18:50;;;;;;;3.62;2.42;;;;;;;22.97;42.50;100595.20;2293453;76;50114;-77
2022/05/25 03:21:53;;;;;;;3.92;2.20;;;;;;;22.97;42.48;100603.30;2259272;76;50432;-76
2022/05/25 03:24:55;;;;;;;3.60;2.25;;;;;;;22.95;42.41;100585.93;2290687;76;50691;-77
2022/05/25 03:27:57;;;;;;;4.55;2.83;;;;;;;22.96;42.45;100590.80;2221095;76;51144;-78
2022/05/25 03:30:59;;;;;;;4.83;2.50;;;;;;;22.95;42.50;100594.55;2291469;76;50670;-77
2022/05/25 03:34:01;;;;;;;4.22;2.30;;;;;;;22.95;42.46;100608.05;2328503;75;51516;-77
2022/05/25 03:37:04;;;;;;;4.12;2.47;;;;;;;22.95;42.47;100613.44;2333164;75;51435;-77
2022/05/25 03:40:09;;;;;;;4.10;2.50;;;;;;;22.95;42.45;100613.44;2359960;75;50432;-77
2022/05/25 03:43:12;;;;;;;3.83;2.67;;;;;;;22.96;42.39;100619.13;2333408;75;50954;-77
2022/05/25 03:46:14;;;;;;;5.05;2.17;;;;;;;22.93;42.44;100609.59;2355727;75;50317;-77
2022/05/25 03:49:17;;;;;;;4.95;2.45;;;;;;;22.92;42.43;100617.39;2319493;75;50716;-77
2022/05/25 03:52:22;;;;;;;4.62;2.40;;;;;;;22.93;42.38;100614.99;2352510;75;50543;-77
2022/05/25 03:55:24;;;;;;;5.65;2.20;;;;;;;22.93;42.38;100625.78;2367225;75;51475;-77
2022/05/25 03:58:26;;;;;;;7.15;2.50;;;;;;;22.92;42.41;100621.97;2305655;75;51576;-77
2022/05/25 04:01:29;;;;;;;3.90;2.25;;;;;;;22.91;42.42;100622.46;2358878;75;51480;-78
2022/05/25 04:04:31;;;;;;;4.62;2.30;;;;;;;22.93;42.37;100617.69;2358606;75;51478;-77
2022/05/25 04:07:35;;;;;;;4.55;2.70;;;;;;;22.93;42.29;100618.22;2377049;74;51530;-76
2022/05/25 04:10:37;;;;;;;3.08;2.10;;;;;;;22.92;42.28;100621.97;2345530;74;51376;-77
2022/05/25 04:13:39;;;;;;;5.95;2.25;;;;;;;22.93;42.30;100629.01;2373081;74;53717;-78
2022/05/25 04:16:45;;;;;;;4.42;2.30;;;;;;;22.91;42.32;100616.25;2318118;74;52674;-77
2022/05/25 04:19:47;;;;;;;3.90;2.25;;;;;;;22.91;42.39;100623.81;2360442;74;51516;-77
2022/05/25 04:22:50;;;;;;;3.75;1.92;;;;;;;22.92;42.29;100631.41;2357812;75;51329;-77
2022/05/25 04:25:52;;;;;;;3.83;2.37;;;;;;;22.92;42.37;100640.86;2367992;75;50727;-77
2022/05/25 04:28:54;;;;;;;4.42;2.50;;;;;;;22.91;42.26;100643.23;2309012;75;51527;-76
2022/05/25 04:31:56;;;;;;;3.50;2.30;;;;;;;22.92;42.26;100642.20;2307723;75;51778;-77
2022/05/25 04:34:59;;;;;;;4.30;2.72;;;;;;;22.92;42.23;100643.55;2335316;75;51491;-77
2022/05/25 04:38:01;;;;;;;3.60;2.20;;;;;;;22.92;42.19;100642.20;2367735;75;50673;-78
2022/05/25 04:41:03;;;;;;;5.60;2.50;;;;;;;22.92;42.16;100643.03;2334749;75;51010;-78
2022/05/25 04:44:05;;;;;;;3.30;2.20;;;;;;;22.93;42.17;100637.11;2367680;75;50693;-77
2022/05/25 04:47:08;;;;;;;5.60;2.30;;;;;;;22.92;42.21;100645.72;2361798;75;51364;-77
2022/05/25 04:50:10;;;;;;;4.37;2.35;;;;;;;22.94;42.10;100649.05;2306328;75;50097;-76
2022/05/25 04:53:14;;;;;;;3.40;2.20;;;;;;;22.94;42.19;100646.84;2328383;75;51874;-77
2022/05/25 04:59:36;;;;;;;5.08;2.37;;;;;;;22.96;42.21;100638.02;2323769;76;22415;-75
2022/05/25 05:02:38;;;;;;;4.72;2.27;;;;;;;22.96;42.49;100637.50;2270759;76;51590;-75
2022/05/25 05:05:40;;;;;;;5.65;2.12;;;;;;;22.98;42.35;100641.38;2240708;76;51836;-75
2022/05/25 05:08:43;;;;;;;8.23;2.67;;;;;;;22.99;42.56;100639.83;2290573;76;50098;-75
2022/05/25 05:11:45;;;;;;;4.17;2.45;;;;;;;23.08;42.94;100647.69;2290981;76;50082;-75
2022/05/25 05:14:47;;;;;;;8.93;3.22;;;;;;;23.17;42.79;100649.94;2315156;76;51533;-75
2022/05/25 05:17:50;;;;;;;7.50;2.42;;;;;;;23.16;42.88;100653.66;2266106;76;51401;-75
2022/05/25 05:20:52;;;;;;;7.20;2.67;;;;;;;23.20;42.92;100658.95;2322155;75;49669;-75
2022/05/25 05:23:54;;;;;;;10.58;3.10;;;;;;;23.21;42.97;100663.30;2282731;75;51383;-76
2022/05/25 05:26:56;;;;;;;7.75;2.40;;;;;;;23.17;43.07;100659.88;2354979;75;50258;-76
2022/05/25 05:30:03;;;;;;;11.55;2.67;;;;;;;23.15;43.20;100660.64;2329757;75;52454;-76
2022/05/25 05:33:06;;;;;;;8.55;2.40;;;;;;;23.21;43.07;100668.70;2355002;75;51576;-77
2022/05/25 05:36:23;;;;;;;11.38;3.05;;;;;;;23.34;42.81;100679.97;2330009;75;50627;-77
2022/05/25 05:39:26;;;;;;;19.07;2.98;;;;;;;23.30;42.97;100670.66;2329553;75;52617;-76
2022/05/25 05:42:28;;;;;;;14.07;3.42;;;;;;;23.38;42.84;100666.88;2355011;75;50358;-76
2022/05/25 05:45:32;;;;;;;12.35;3.30;;;;;;;23.40;42.77;100672.38;2319716;75;50051;-79
2022/05/25 05:48:47;;;;;;;18.23;3.42;;;;;;;23.41;42.74;100671.84;2292229;74;50714;-78
2022/05/25 05:52:03;;;;;;;20.90;3.30;;;;;;;23.46;42.83;100674.20;2315639;73;22087;-79
2022/05/25 05:55:13;;;;;;;28.70;3.90;;;;;;;23.53;42.61;100680.09;2335004;74;21817;-79
2022/05/25 05:58:43;;;;;;;21.02;3.33;;;;;;;23.64;42.05;100682.95;2357728;73;22155;-78
2022/05/25 06:02:20;;;;;;;19.30;3.20;;;;;;;23.69;41.79;100685.83;2250799;78;22391;-79
2022/05/25 06:05:30;;;;;;;19.30;4.03;;;;;;;23.70;41.67;100681.25;2248874;77;51865;-79
2022/05/25 06:08:46;;;;;;;12.58;2.95;;;;;;;23.69;41.55;100679.08;2118893;82;22151;-79
2022/05/25 06:11:53;;;;;;;15.25;3.02;;;;;;;23.72;40.91;100675.64;2117024;83;22420;-79
2022/05/25 06:19:25;;;;;;;11.60;2.92;;;;;;;23.75;40.47;100677.94;2118602;83;21830;-79
2022/05/25 06:22:07;;;;;;;8.05;2.35;;;;;;;23.79;39.90;100684.55;2118398;81;22044;-79
2022/05/25 06:25:25;;;;;;;8.75;2.25;;;;;;;23.80;39.66;100688.92;2116603;80;21971;-79
2022/05/25 06:32:19;;;;;;;5.25;2.00;;;;;;;23.80;39.43;100692.45;1894011;91;22408;-78
2022/05/25 06:35:26;;;;;;;5.03;2.00;;;;;;;23.80;39.21;100694.33;1938755;90;50547;-78
2022/05/25 06:38:31;;;;;;;6.28;2.05;;;;;;;23.81;39.05;100693.27;1937406;90;22409;-78
2022/05/25 06:41:35;;;;;;;5.00;2.05;;;;;;;23.77;39.20;100702.88;1937623;91;50095;-77
2022/05/25 06:44:44;;;;;;;3.77;1.85;;;;;;;23.76;39.29;100699.84;1940286;89;21791;-78
2022/05/25 06:48:12;;;;;;;4.40;1.87;;;;;;;23.75;39.14;100704.95;1994504;85;21746;-78
2022/05/25 06:55:25;;;;;;;6.15;2.02;;;;;;;23.72;39.05;100714.81;1933675;91;22631;-77
2022/05/25 06:58:31;;;;;;;5.22;2.15;;;;;;;23.66;39.11;100721.39;1869203;94;50717;-78
2022/05/25 07:01:46;;;;;;;3.27;2.12;;;;;;;23.64;39.23;100722.65;1869187;94;23080;-78
2022/05/25 07:05:13;;;;;;;4.25;2.00;;;;;;;23.62;39.50;100722.85;1797270;98;23403;-77
2022/05/25 07:08:17;;;;;;;3.50;2.10;;;;;;;23.61;39.46;100729.31;1781427;97;21944;-77
2022/05/25 07:11:19;;;;;;;3.20;2.08;;;;;;;23.57;39.68;100724.02;1808585;97;50465;-78
2022/05/25 07:14:25;;;;;;;4.60;2.02;;;;;;;23.54;39.78;100726.33;1825325;93;49739;-77
2022/05/25 07:17:30;;;;;;;6.87;2.40;;;;;;;23.55;39.59;100726.62;1830176;95;22521;-77
2022/05/25 07:20:32;;;;;;;3.42;2.08;;;;;;;23.53;38.94;100731.41;1829088;96;51790;-76
2022/05/25 07:23:37;;;;;;;4.28;1.90;;;;;;;23.47;39.38;100726.34;1801144;97;51574;-76
2022/05/25 07:26:39;;;;;;;2.93;2.00;;;;;;;23.46;39.49;100735.50;1833555;95;50433;-76
2022/05/25 07:29:41;;;;;;;8.70;2.55;;;;;;;23.47;39.33;100739.84;1827904;95;51783;-76
2022/05/25 07:32:44;;;;;;;19.70;3.40;;;;;;;23.47;39.29;100738.49;1863787;95;50244;-75
2022/05/25 07:35:46;;;;;;;7.55;2.27;;;;;;;23.47;39.16;100739.84;1986364;85;50382;-76
2022/05/25 07:38:50;;;;;;;8.70;2.95;;;;;;;23.47;39.13;100743.37;2050920;85;50982;-75
2022/05/25 07:41:54;;;;;;;8.18;2.62;;;;;;;23.45;39.23;100752.72;2098343;83;50417;-75
2022/05/25 07:44:57;;;;;;;4.78;2.00;;;;;;;23.44;39.29;100757.30;2138363;83;51374;-76
2022/05/25 07:48:00;;;;;;;4.53;2.05;;;;;;;23.43;39.35;100755.66;2153284;79;51547;-76
2022/05/25 07:51:03;;;;;;;6.08;1.92;;;;;;;23.41;39.39;100760.44;2247041;78;51498;-76
2022/05/25 07:54:05;;;;;;;4.22;2.00;;;;;;;23.39;39.20;100764.39;2247229;79;50390;-76
2022/05/25 07:57:07;;;;;;;5.62;1.85;;;;;;;23.36;39.29;100760.77;2221986;79;50604;-76
2022/05/25 08:00:10;;;;;;;4.92;1.95;;;;;;;23.34;39.29;100757.45;2247070;78;50758;-76
2022/05/25 08:06:32;;;;;;;2.87;1.87;;;;;;;23.33;39.29;100767.95;2264408;77;22403;-76
2022/05/25 08:09:34;;;;;;;4.42;2.00;;;;;;;23.30;39.38;100758.89;2304811;76;51522;-76
2022/05/25 08:12:37;;;;;;;2.90;1.92;;;;;;;23.29;39.37;100764.00;2280839;77;51568;-76
2022/05/25 08:15:42;;;;;;;6.25;2.12;;;;;;;23.28;39.26;100766.41;2305035;77;51492;-76
2022/05/25 08:18:43;;;;;;;2.67;2.20;;;;;;;23.29;39.28;100772.92;2305156;76;22353;-76
2022/05/25 08:21:47;;;;;;;5.15;2.02;;;;;;;23.28;39.21;100771.28;2248443;77;51376;-76
2022/05/25 08:24:49;;;;;;;3.08;2.10;;;;;;;23.28;39.30;100774.50;2248373;79;51491;-76
2022/05/25 08:27:51;;;;;;;2.80;2.00;;;;;;;23.28;39.28;100773.97;2176185;79;50921;-76
2022/05/25 08:30:54;;;;;;;3.75;1.75;;;;;;;23.26;39.27;100772.00;2247762;77;50403;-76
2022/05/25 08:33:56;;;;;;;1.75;1.65;;;;;;;23.26;39.21;100772.83;2248027;79;50345;-76
2022/05/25 08:36:58;;;;;;;2.45;1.90;;;;;;;23.27;39.31;100780.40;2185915;80;50677;-76
2022/05/25 08:40:00;;;;;;;3.87;2.00;;;;;;;23.27;39.35;100781.75;2240587;78;51366;-76
2022/05/25 08:43:08;;;;;;;3.27;2.10;;;;;;;23.28;39.43;100773.97;2162938;80;50080;-76
2022/05/25 08:46:14;;;;;;;2.92;2.25;;;;;;;23.27;39.44;100769.59;2240985;79;51577;-76
2022/05/25 08:49:15;;;;;;;2.50;1.90;;;;;;;23.27;39.45;100772.30;2240769;78;22702;-76
2022/05/25 08:52:27;;;;;;;2.70;1.72;;;;;;;23.27;39.45;100775.00;2193859;79;49539;-76
2022/05/25 08:55:49;;;;;;;2.80;1.90;;;;;;;23.27;39.51;100773.65;2242197;78;51775;-76
2022/05/25 08:58:57;;;;;;;3.02;1.75;;;;;;;23.26;39.55;100779.58;2240692;78;50372;-77
2022/05/25 09:02:01;;;;;;;3.42;2.10;;;;;;;23.25;39.57;100779.28;2241000;78;51562;-76
2022/05/25 09:05:18;;;;;;;2.42;1.98;;;;;;;23.26;39.60;100772.00;2218459;79;52160;-76
2022/05/25 09:08:45;;;;;;;5.92;1.92;;;;;;;23.23;39.55;100767.86;2243862;78;22292;-76
2022/05/25 09:11:57;;;;;;;6.78;2.30;;;;;;;23.23;39.47;100782.70;2245442;77;51440;-77
2022/05/25 09:15:08;;;;;;;6.97;1.80;;;;;;;23.23;39.56;100774.60;2254037;78;50701;-76
2022/05/25 09:18:13;;;;;;;4.20;1.95;;;;;;;23.24;39.61;100779.47;2228928;77;49748;-76
2022/05/25 09:21:15;;;;;;;5.15;1.90;;;;;;;23.24;39.57;100780.30;2294920;76;51463;-76
2022/05/25 09:24:20;;;;;;;3.30;1.67;;;;;;;23.21;39.61;100773.16;2250290;77;50312;-76
2022/05/25 09:27:28;;;;;;;3.75;1.75;;;;;;;23.22;39.38;100771.61;2240917;78;50782;-76
2022/05/25 09:30:32;;;;;;;6.12;1.95;;;;;;;23.22;39.48;100774.80;2240901;78;51506;-76
2022/05/25 09:33:43;;;;;;;4.33;2.20;;;;;;;23.23;39.49;100781.35;2216835;79;52514;-75
2022/05/25 09:36:51;;;;;;;3.52;2.08;;;;;;;23.24;39.42;100777.59;2236882;79;50817;-76
2022/05/25 09:39:53;;;;;;;3.90;1.92;;;;;;;23.23;39.58;100773.25;2240748;78;50382;-76
2022/05/25 09:42:58;;;;;;;4.47;1.77;;;;;;;23.22;39.59;100767.55;2216820;79;50927;-77
2022/05/25 09:46:07;;;;;;;3.35;1.70;;;;;;;23.22;39.53;100770.75;2195853;79;50349;-76
2022/05/25 09:49:16;;;;;;;4.55;1.60;;;;;;;23.21;39.60;100769.92;2240408;78;51465;-76
2022/05/25 09:52:24;;;;;;;5.40;2.22;;;;;;;23.22;39.51;100776.16;2239586;79;22579;-77
2022/05/25 09:55:32;;;;;;;3.98;1.95;;;;;;;23.19;39.53;100774.70;2243558;79;50723;-77
2022/05/25 09:58:37;;;;;;;4.08;1.95;;;;;;;23.20;39.39;100770.98;2245394;79;50358;-77
2022/05/25 10:01:46;;;;;;;2.20;1.55;;;;;;;23.20;39.34;100772.33;2187027;80;51433;-77
2022/05/25 10:04:51;;;;;;;3.22;1.65;;;;;;;23.20;39.38;100772.33;2211770;80;51509;-76
2022/05/25 10:08:07;;;;;;;2.33;1.60;;;;;;;23.20;39.23;100779.08;2176118;81;51554;-77
2022/05/25 10:11:27;;;;;;;2.70;1.67;;;;;;;23.21;39.09;100775.85;2196653;80;50435;-76
2022/05/25 10:14:25;;;;;;;4.25;1.60;;;;;;;23.19;39.03;100781.98;2246008;79;22325;-76
2022/05/25 10:17:36;;;;;;;6.03;2.00;;;;;;;23.21;38.85;100772.63;2221280;79;50022;-77
2022/05/25 10:20:46;;;;;;;4.97;1.50;;;;;;;23.24;38.67;100776.25;2223257;79;51447;-76
2022/05/25 10:23:49;;;;;;;5.72;1.60;;;;;;;23.21;38.66;100764.53;2242428;79;51537;-76
2022/05/25 10:26:53;;;;;;;4.45;1.40;;;;;;;23.21;38.40;100769.92;2221314;79;49554;-77
2022/05/25 10:36:49;;;;;;;2.90;1.25;;;;;;;23.16;38.48;100743.27;2216793;78;22381;-76
2022/05/25 10:39:57;;;;;;;2.00;1.30;;;;;;;23.16;38.39;100751.36;2232888;78;50559;-77
2022/05/25 10:42:59;;;;;;;1.70;1.00;;;;;;;23.15;38.35;100745.14;2219935;79;50750;-77
2022/05/25 10:46:02;;;;;;;5.83;1.50;;;;;;;23.17;38.33;100747.61;2243814;79;50235;-77
2022/05/25 10:49:13;;;;;;;7.28;1.82;;;;;;;23.18;38.34;100739.84;2244336;79;51497;-77
2022/05/25 10:52:28;;;;;;;5.28;1.60;;;;;;;23.20;38.08;100739.94;2218326;79;53618;-77
2022/05/25 10:55:34;;;;;;;5.70;1.50;;;;;;;23.20;37.92;100743.16;2243873;79;51848;-77
2022/05/25 10:58:54;;;;;;;5.75;1.50;;;;;;;23.17;38.07;100743.06;2245535;79;50204;-77
2022/05/25 11:02:33;;;;;;;9.98;1.35;;;;;;;23.16;38.10;100736.52;2245676;78;51460;-77
2022/05/25 11:05:55;;;;;;;3.95;1.50;;;;;;;23.14;38.15;100739.94;2245354;79;50796;-77
2022/05/25 11:09:06;;;;;;;6.20;1.35;;;;;;;23.16;38.04;100740.56;2245342;78;24636;-76
2022/05/25 11:12:38;;;;;;;7.28;1.30;;;;;;;23.14;37.95;100742.11;2245574;78;51681;-77
2022/05/25 11:15:49;;;;;;;4.80;1.22;;;;;;;23.12;37.85;100742.02;2223208;79;51786;-77
2022/05/25 11:19:07;;;;;;;7.47;1.60;;;;;;;23.18;37.62;100735.27;2222339;79;50936;-78
2022/05/25 11:22:24;;;;;;;6.58;1.47;;;;;;;23.13;37.64;100735.06;2244425;79;50607;-77
2022/05/25 11:25:46;;;;;;;4.03;1.20;;;;;;;23.12;37.67;100729.87;2202517;80;51306;-76
2022/05/25 11:29:06;;;;;;;11.70;1.70;;;;;;;23.15;37.59;100726.77;2208919;79;50709;-77
2022/05/25 11:32:26;;;;;;;5.33;1.00;;;;;;;23.10;37.69;100727.40;2208749;80;50491;-77
2022/05/25 11:35:44;;;;;;;2.12;1.40;;;;;;;23.11;37.62;100728.22;2178587;80;49599;-77
2022/05/25 11:39:18;;;;;;;4.97;1.52;;;;;;;23.09;37.72;100737.87;2208797;79;51805;-77
2022/05/25 11:42:39;;;;;;;3.77;1.10;;;;;;;23.09;37.66;100733.81;2208879;80;50716;-76
2022/05/25 11:45:48;;;;;;;3.17;1.20;;;;;;;23.07;37.65;100729.17;2178590;80;51695;-77
2022/05/25 11:49:05;;;;;;;3.02;1.30;;;;;;;23.05;37.58;100719.11;2177894;79;52515;-77
2022/05/25 11:52:29;;;;;;;4.67;1.30;;;;;;;23.04;37.52;100725.03;2215031;79;50415;-76
2022/05/25 11:56:05;;;;;;;1.10;0.90;;;;;;;23.06;37.47;100722.63;2244180;79;50018;-77
2022/05/25 11:59:26;;;;;;;4.17;1.10;;;;;;;23.08;37.43;100732.70;2243578;78;50418;-77
2022/05/25 12:03:00;;;;;;;1.82;1.00;;;;;;;23.06;37.25;100724.80;2220661;79;52678;-77
2022/05/25 12:06:27;;;;;;;2.65;1.07;;;;;;;23.09;37.30;100727.59;2243130;79;50748;-77
2022/05/25 12:09:52;;;;;;;2.80;0.98;;;;;;;23.09;37.24;100732.47;2243408;78;50578;-77
2022/05/25 12:13:16;;;;;;;2.55;1.10;;;;;;;23.10;37.22;100732.80;2220516;79;50261;-77
2022/05/25 12:16:28;;;;;;;2.47;1.10;;;;;;;23.10;37.26;100719.30;2243692;79;50428;-77
2022/05/25 12:19:31;;;;;;;4.83;1.10;;;;;;;23.11;37.15;100725.00;2242277;78;51458;-77
2022/05/25 12:22:34;;;;;;;1.27;0.93;;;;;;;23.06;37.13;100730.20;2219373;79;51490;-77
2022/05/25 12:25:36;;;;;;;2.58;1.15;;;;;;;23.05;37.21;100723.16;2242503;78;50294;-77
2022/05/25 12:28:39;;;;;;;11.85;1.85;;;;;;;23.04;37.17;100724.17;2240625;78;51504;-77
2022/05/25 12:31:43;;;;;;;13.78;1.62;;;;;;;23.08;37.00;100730.82;2240107;79;50426;-78
2022/05/25 12:34:50;;;;;;;8.43;1.60;;;;;;;23.07;36.91;100718.87;2240223;78;51494;-77
2022/05/25 12:37:53;;;;;;;5.22;1.47;;;;;;;23.09;36.97;100713.58;2216653;79;50061;-77
2022/05/25 12:40:55;;;;;;;6.35;1.50;;;;;;;23.08;36.98;100707.06;2240680;78;50408;-77
2022/05/25 12:50:54;;;;;;;3.12;1.10;;;;;;;23.09;37.13;100711.41;2292303;76;22385;-76
2022/05/25 12:54:08;;;;;;;4.80;1.10;;;;;;;23.07;37.07;100714.83;2287282;77;50069;-76
2022/05/25 12:57:08;;;;;;;2.75;1.30;;;;;;;23.08;37.04;100710.58;2266655;77;22711;-77
2022/05/25 13:00:16;;;;;;;2.85;0.90;;;;;;;23.08;37.02;100706.53;2241905;77;51492;-77
2022/05/25 13:03:24;;;;;;;2.58;1.00;;;;;;;23.07;36.97;100698.14;2258210;77;53542;-77
2022/05/25 13:06:32;;;;;;;1.70;1.00;;;;;;;23.06;36.97;100685.66;2292217;77;50743;-77
2022/05/25 13:09:45;;;;;;;1.52;0.80;;;;;;;23.03;36.88;100686.09;2292212;76;50989;-77
2022/05/25 13:12:52;;;;;;;2.77;1.02;;;;;;;23.04;36.97;100686.39;2292294;77;50331;-77
2022/05/25 13:15:54;;;;;;;4.00;1.10;;;;;;;23.04;36.96;100687.73;2291923;76;50749;-77
2022/05/25 13:18:57;;;;;;;2.10;0.90;;;;;;;23.02;37.05;100695.24;2266242;76;49457;-77
2022/05/25 13:22:03;;;;;;;2.42;1.00;;;;;;;23.00;37.01;100689.22;2291682;77;51558;-77
2022/05/25 13:25:06;;;;;;;;;;;;;;;23.01;36.98;100694.91;2295154;77;51521;-77
2022/05/25 13:28:20;;;;;;;1.05;0.95;;;;;;;22.99;37.10;100695.64;2292725;76;52482;-77
2022/05/25 13:31:32;;;;;;;1.17;0.98;;;;;;;22.98;37.02;100706.14;2329112;76;51444;-77
2022/05/25 13:34:34;;;;;;;2.22;1.00;;;;;;;22.96;37.10;100698.21;2329065;75;53275;-77
2022/05/25 13:37:38;;;;;;;2.90;1.02;;;;;;;22.98;37.05;100702.09;2304465;76;51984;-77
2022/05/25 13:40:46;;;;;;;4.10;0.90;;;;;;;22.96;36.89;100710.88;2329119;76;50732;-77
2022/05/25 13:44:00;;;;;;;2.90;1.10;;;;;;;22.96;36.89;100711.70;2329810;76;51530;-77
2022/05/25 13:47:02;;;;;;;2.17;0.80;;;;;;;22.96;36.75;100710.35;2305695;76;50436;-76
2022/05/25 13:50:04;;;;;;;2.45;0.90;;;;;;;22.95;36.85;100710.58;2304568;76;50255;-75
2022/05/25 13:53:10;;;;;;;2.22;0.88;;;;;;;22.97;36.82;100712.59;2317194;75;52333;-76
2022/05/25 13:56:13;;;;;;;1.90;0.90;;;;;;;22.96;36.74;100717.63;2288350;76;52462;-76
2022/05/25 13:59:15;;;;;;;1.55;0.90;;;;;;;22.96;36.76;100710.88;2357851;75;51535;-79
2022/05/25 14:02:28;;;;;;;1.02;0.90;;;;;;;22.96;36.71;100713.05;2342712;75;51225;-76
2022/05/25 14:05:36;;;;;;;2.22;0.98;;;;;;;22.97;36.76;100717.98;2369779;75;50352;-76
2022/05/25 14:12:06;;;;;;;3.70;1.20;;;;;;;22.97;36.73;100703.14;2314526;75;22469;-77
2022/05/25 14:15:08;;;;;;;1.72;1.27;;;;;;;22.97;36.73;100707.19;2302249;75;51519;-76
2022/05/25 14:18:12;;;;;;;2.70;1.17;;;;;;;22.99;36.81;100714.53;2276820;76;52774;-77
2022/05/25 14:21:41;;;;;;;2.50;1.00;;;;;;;22.98;36.81;100702.09;2303271;76;50255;-77
2022/05/25 14:24:45;;;;;;;1.40;1.20;;;;;;;22.99;36.88;100695.64;2327256;75;50374;-77
2022/05/25 14:27:47;;;;;;;1.57;1.10;;;;;;;23.00;36.94;100694.63;2302829;76;49605;-77
2022/05/25 14:30:53;;;;;;;2.15;1.37;;;;;;;22.99;36.93;100690.24;2327271;76;50357;-77
2022/05/25 14:34:02;;;;;;;;;;;;;;;23.02;37.01;100689.84;2330325;76;50360;-76
2022/05/25 14:37:05;;;;;;;2.37;0.98;;;;;;;23.02;37.07;100689.84;2302867;76;51441;-77
2022/05/25 14:40:09;;;;;;;1.65;1.15;;;;;;;23.02;37.14;100686.62;2327245;76;50141;-77
2022/05/25 14:43:11;;;;;;;2.55;1.42;;;;;;;23.03;37.22;100684.75;2322599;76;50732;-77
2022/05/25 14:46:15;;;;;;;2.60;1.30;;;;;;;23.03;37.31;100690.14;2295339;76;51458;-77
2022/05/25 14:49:18;;;;;;;2.15;1.52;;;;;;;23.06;37.21;100700.51;2316883;76;50459;-76
2022/05/25 14:52:20;;;;;;;2.42;1.27;;;;;;;23.06;37.16;100685.66;2295152;76;49562;-77
2022/05/25 14:55:31;;;;;;;2.17;1.20;;;;;;;23.06;37.25;100687.02;2316969;76;51490;-76
2022/05/25 14:58:46;;;;;;;1.98;1.32;;;;;;;23.06;37.16;100685.66;2317012;76;50375;-77
2022/05/25 15:01:48;;;;;;;1.87;1.20;;;;;;;23.06;37.21;100681.62;2295634;76;50066;-77
2022/05/25 15:04:50;;;;;;;2.08;1.35;;;;;;;23.09;37.20;100678.48;2270675;76;51504;-77
2022/05/25 15:07:55;;;;;;;2.55;1.27;;;;;;;23.06;37.18;100677.56;2317136;76;50670;-77
2022/05/25 15:10:58;;;;;;;1.82;1.17;;;;;;;23.05;37.33;100670.52;2322420;76;50322;-77
2022/05/25 15:20:47;;;;;;;2.37;1.37;;;;;;;23.08;37.26;100663.34;2329566;76;23395;-78